createdAt,value
2018-09-04T00:02:00.808Z,47.78
2018-09-04T00:04:31.146Z,46.95
2018-09-04T00:07:00.702Z,47.20
2018-09-04T00:09:32.341Z,47.67
2018-09-04T00:12:02.543Z,46.67
2018-09-04T00:14:32.914Z,45.75
2018-09-04T00:17:04.675Z,48.05
2018-09-04T00:19:35.412Z,45.88
2018-09-04T00:22:05.704Z,48.92
2018-09-04T00:24:37.214Z,49.40
2018-09-04T00:27:06.420Z,49.97
2018-09-04T00:29:36.637Z,50.12
2018-09-04T00:32:08.229Z,51.92
2018-09-04T00:34:40.107Z,49.78
2018-09-04T00:37:10.209Z,50.78
2018-09-04T00:39:40.290Z,50.17
2018-09-04T00:42:10.567Z,54.35
2018-09-04T00:44:39.291Z,53.80
2018-09-04T00:47:10.949Z,55.53
2018-09-04T00:49:42.949Z,51.33
2018-09-04T00:52:14.222Z,53.28
2018-09-04T00:54:46.316Z,48.53
2018-09-04T00:57:17.170Z,49.97
2018-09-04T00:59:48.930Z,48.05
2018-09-04T01:02:20.558Z,46.47
2018-09-04T01:04:51.801Z,41.72
2018-09-04T01:07:23.463Z,46.37
2018-09-04T01:09:53.731Z,46.25
2018-09-04T01:12:25.533Z,46.22
2018-09-04T01:15:01.315Z,47.83
2018-09-04T01:17:34.846Z,51.50
2018-09-04T01:20:03.731Z,48.92
2018-09-04T01:22:35.372Z,49.80
2018-09-04T01:25:05.497Z,50.65
2018-09-04T01:27:35.597Z,54.33
2018-09-04T01:30:04.363Z,54.50
2018-09-04T01:32:36.179Z,51.60
2018-09-04T01:35:08.004Z,55.08
2018-09-04T01:37:40.011Z,52.97
2018-09-04T01:40:10.079Z,52.62
2018-09-04T01:42:42.038Z,54.65
2018-09-04T01:45:12.397Z,49.15
2018-09-04T01:47:43.062Z,53.50
2018-09-04T01:50:12.879Z,52.62
2018-09-04T01:52:44.453Z,50.72
2018-09-04T01:55:14.928Z,51.92
2018-09-04T01:57:46.591Z,51.55
2018-09-04T02:00:18.422Z,55.22
2018-09-04T02:02:47.316Z,57.13
2018-09-04T02:05:17.621Z,58.58
2018-09-04T02:07:46.197Z,56.28
2018-09-04T02:10:16.858Z,58.22
2018-09-04T02:12:46.926Z,55.30
2018-09-04T02:15:17.138Z,58.15
2018-09-04T02:17:47.077Z,59.22
2018-09-04T02:20:15.726Z,58.95
2018-09-04T02:22:46.093Z,58.03
2018-09-04T02:25:15.496Z,57.65
2018-09-04T02:27:47.007Z,55.80
2018-09-04T02:30:18.833Z,54.80
2018-09-04T02:32:49.662Z,58.20
2018-09-04T02:35:18.340Z,57.67
2018-09-04T02:37:50.397Z,55.65
2018-09-04T02:40:20.941Z,55.67
2018-09-04T02:42:51.367Z,59.83
2018-09-04T02:45:21.739Z,52.47
2018-09-04T02:47:51.805Z,56.80
2018-09-04T02:50:23.548Z,61.67
2018-09-04T02:52:55.550Z,57.40
2018-09-04T02:55:24.611Z,55.08
2018-09-04T02:57:53.230Z,55.55
2018-09-04T03:00:25.440Z,58.65
2018-09-04T03:02:56.029Z,57.05
2018-09-04T03:05:26.063Z,54.85
2018-09-04T03:07:57.960Z,55.15
2018-09-04T03:10:28.425Z,49.85
2018-09-04T03:12:58.503Z,57.70
2018-09-04T03:15:28.553Z,57.83
2018-09-04T03:17:57.814Z,56.83
2018-09-04T03:20:26.148Z,54.00
2018-09-04T03:22:56.206Z,56.33
2018-09-04T03:25:26.505Z,55.83
2018-09-04T03:27:58.395Z,56.65
2018-09-04T03:30:28.823Z,55.05
2018-09-04T03:33:00.527Z,55.50
2018-09-04T03:35:32.280Z,55.05
2018-09-04T03:38:02.792Z,55.78
2018-09-04T03:40:34.578Z,55.35
2018-09-04T03:43:04.762Z,55.42
2018-09-04T03:45:33.256Z,54.35
2018-09-04T03:48:02.887Z,52.72
2018-09-04T03:50:33.073Z,53.65
2018-09-04T03:53:03.297Z,52.65
2018-09-04T03:55:34.900Z,51.95
2018-09-04T03:58:05.163Z,54.05
2018-09-04T04:00:36.982Z,50.30
2018-09-04T04:03:05.854Z,48.50
2018-09-04T04:05:37.564Z,52.00
2018-09-04T04:08:08.390Z,48.45
2018-09-04T04:10:37.797Z,48.95
2018-09-04T04:13:10.002Z,51.50
2018-09-04T04:15:39.158Z,47.47
2018-09-04T04:18:09.853Z,49.63
2018-09-04T04:20:39.957Z,47.60
2018-09-04T04:23:11.080Z,49.22
2018-09-04T04:25:39.761Z,47.67
2018-09-04T04:28:10.082Z,47.80
2018-09-04T04:30:41.827Z,47.65
2018-09-04T04:33:13.893Z,45.60
2018-09-04T04:35:42.416Z,47.03
2018-09-04T04:38:12.603Z,48.10
2018-09-04T04:40:43.178Z,48.67
2018-09-04T04:43:13.640Z,47.22
2018-09-04T04:45:44.195Z,44.22
2018-09-04T04:48:15.938Z,48.10
2018-09-04T04:50:47.788Z,45.63
2018-09-04T04:53:19.327Z,46.35
2018-09-04T04:55:50.246Z,43.00
2018-09-04T04:58:19.084Z,40.05
2018-09-04T05:00:50.035Z,40.10
2018-09-04T05:03:21.838Z,39.22
2018-09-04T05:05:50.466Z,47.83
2018-09-04T05:08:20.710Z,44.63
2018-09-04T05:10:49.278Z,45.22
2018-09-04T05:13:19.852Z,49.05
2018-09-04T05:15:51.615Z,41.80
2018-09-04T05:18:23.004Z,40.80
2018-09-04T05:20:53.131Z,38.15
2018-09-04T05:23:23.181Z,40.65
2018-09-04T05:25:53.609Z,45.65
2018-09-04T05:28:22.266Z,44.03
2018-09-04T05:30:51.195Z,41.15
2018-09-04T05:33:38.084Z,40.15
2018-09-04T05:36:10.528Z,44.85
2018-09-04T05:38:42.314Z,44.25
2018-09-04T05:41:13.582Z,46.47
2018-09-04T05:44:01.030Z,45.30
2018-09-04T05:46:39.332Z,43.28
2018-09-04T05:49:11.543Z,44.75
2018-09-04T05:51:43.485Z,46.25
2018-09-04T05:54:13.728Z,45.35
2018-09-04T05:56:43.820Z,43.03
2018-09-04T05:59:13.993Z,44.28
2018-09-04T06:01:45.551Z,45.08
2018-09-04T06:04:17.582Z,44.65
2018-09-04T06:06:49.383Z,44.30
2018-09-04T06:09:20.934Z,43.65
2018-09-04T06:11:49.883Z,43.15
2018-09-04T06:14:20.030Z,45.95
2018-09-04T06:16:51.731Z,45.45
2018-09-04T06:19:23.593Z,44.90
2018-09-04T06:21:53.634Z,42.95
2018-09-04T06:24:22.383Z,42.08
2018-09-04T06:26:52.985Z,42.08
2018-09-04T06:29:23.105Z,41.65
2018-09-04T06:31:51.781Z,43.20
2018-09-04T06:34:22.123Z,41.97
2018-09-04T06:36:52.240Z,42.25
2018-09-04T06:39:24.192Z,40.22
2018-09-04T06:41:56.124Z,40.75
2018-09-04T06:44:26.302Z,41.78
2018-09-04T06:46:56.335Z,42.13
2018-09-04T06:49:26.403Z,43.33
2018-09-04T06:51:57.954Z,42.28
2018-09-04T06:54:28.380Z,42.90
2018-09-04T06:57:00.732Z,42.58
2018-09-04T06:59:29.932Z,43.83
2018-09-04T07:02:00.414Z,43.85
2018-09-04T07:04:28.972Z,40.75
2018-09-04T07:06:59.021Z,41.45
2018-09-04T07:09:29.052Z,40.83
2018-09-04T07:11:59.619Z,41.20
2018-09-04T07:14:28.206Z,41.20
2018-09-04T07:19:30.079Z,38.88
2018-09-04T07:22:01.846Z,40.72
2018-09-04T07:24:33.653Z,36.95
2018-09-04T07:27:03.848Z,39.55
2018-09-04T07:29:33.416Z,39.33
2018-09-04T07:32:04.769Z,37.80
2018-09-04T07:34:34.961Z,35.33
2018-09-04T07:37:04.446Z,36.20
2018-09-04T07:39:36.241Z,36.83
2018-09-04T07:42:06.480Z,37.20
2018-09-04T07:44:36.689Z,35.58
2018-09-04T07:47:08.367Z,37.30
2018-09-04T07:49:38.473Z,36.10
2018-09-04T07:52:10.163Z,36.55
2018-09-04T07:54:40.535Z,35.35
2018-09-04T07:57:10.704Z,35.20
2018-09-04T07:59:42.466Z,35.22
2018-09-04T08:02:12.038Z,34.20
2018-09-04T08:04:42.058Z,33.00
2018-09-04T08:07:12.086Z,36.20
2018-09-04T08:09:42.558Z,34.67
2018-09-04T08:12:12.754Z,35.15
2018-09-04T08:14:43.506Z,34.80
2018-09-04T08:17:13.652Z,35.88
2018-09-04T08:19:45.217Z,35.33
2018-09-04T08:22:31.124Z,36.03
2018-09-04T08:24:59.622Z,34.85
2018-09-04T08:27:28.187Z,35.58
2018-09-04T08:29:58.636Z,34.25
2018-09-04T08:32:28.639Z,34.05
2018-09-04T08:34:58.578Z,33.97
2018-09-04T08:37:28.684Z,32.35
2018-09-04T08:39:58.823Z,34.45
2018-09-04T08:42:28.928Z,33.13
2018-09-04T08:44:59.036Z,34.45
2018-09-04T08:47:29.182Z,35.28
2018-09-04T08:49:59.885Z,32.88
2018-09-04T08:52:28.596Z,33.97
2018-09-04T08:54:57.968Z,32.53
2018-09-04T08:57:27.899Z,32.00
2018-09-04T08:59:59.354Z,32.95
2018-09-04T09:02:29.875Z,31.60
2018-09-04T09:04:59.897Z,33.00
2018-09-04T09:07:28.459Z,33.33
2018-09-04T09:09:59.949Z,32.05
2018-09-04T09:12:30.135Z,32.55
2018-09-04T09:15:02.161Z,31.27
2018-09-04T09:17:30.685Z,29.67
2018-09-04T09:19:59.772Z,29.87
2018-09-04T09:22:29.405Z,27.25
2018-09-04T09:25:00.110Z,29.15
2018-09-04T09:27:30.231Z,31.05
2018-09-04T09:30:00.252Z,31.37
2018-09-04T09:32:28.754Z,28.35
2018-09-04T09:34:58.780Z,29.42
2018-09-04T09:37:30.336Z,30.42
2018-09-04T09:40:01.350Z,29.65
2018-09-04T09:42:31.313Z,29.55
2018-09-04T09:45:02.750Z,29.63
2018-09-04T09:47:34.230Z,28.60
2018-09-04T09:50:04.272Z,29.60
2018-09-04T09:52:34.389Z,30.15
2018-09-04T09:55:04.440Z,30.60
2018-09-04T09:57:34.572Z,30.42
2018-09-04T10:00:04.578Z,31.75
2018-09-04T10:02:52.486Z,29.75
2018-09-04T10:05:21.194Z,31.45
2018-09-04T10:07:52.833Z,31.55
2018-09-04T10:10:24.140Z,30.75
2018-09-04T10:12:55.889Z,29.75
2018-09-04T10:15:26.052Z,30.23
2018-09-04T10:17:54.662Z,30.92
2018-09-04T10:20:24.712Z,29.50
2018-09-04T10:22:54.794Z,30.42
2018-09-04T10:25:24.810Z,30.20
2018-09-04T10:27:54.871Z,29.58
2018-09-04T10:30:24.926Z,30.58
2018-09-04T10:32:56.940Z,29.92
2018-09-04T10:35:26.220Z,30.05
2018-09-04T10:37:56.903Z,29.10
2018-09-04T10:40:44.217Z,31.70
2018-09-04T10:43:14.224Z,30.75
2018-09-04T10:46:21.758Z,31.17
2018-09-04T10:48:49.481Z,30.58
2018-09-04T10:51:19.488Z,31.85
2018-09-04T10:53:51.005Z,31.17
2018-09-04T10:56:21.896Z,30.67
2018-09-04T10:58:51.550Z,31.45
2018-09-04T11:01:21.895Z,34.27
2018-09-04T11:03:53.562Z,31.95
2018-09-04T11:06:22.114Z,31.50
2018-09-04T11:08:53.972Z,28.02
2018-09-04T11:11:25.638Z,32.15
2018-09-04T11:13:55.736Z,30.02
2018-09-04T11:16:24.554Z,29.75
2018-09-04T11:18:54.673Z,29.45
2018-09-04T11:21:27.228Z,27.20
2018-09-04T11:23:57.399Z,28.75
2018-09-04T11:26:27.965Z,27.62
2018-09-04T11:28:59.305Z,28.92
2018-09-04T11:31:28.820Z,29.70
2018-09-04T11:33:58.869Z,30.23
2018-09-04T11:36:28.230Z,29.77
2018-09-04T11:38:58.488Z,29.08
2018-09-04T11:41:30.007Z,28.65
2018-09-04T11:44:01.403Z,30.15
2018-09-04T11:46:31.644Z,28.83
2018-09-04T11:49:01.811Z,28.62
2018-09-04T11:51:31.857Z,29.60
2018-09-04T11:54:02.108Z,30.23
2018-09-04T11:56:33.552Z,29.08
2018-09-04T11:59:02.085Z,27.90
2018-09-04T12:01:33.375Z,31.15
2018-09-04T12:04:03.350Z,29.10
2018-09-04T12:06:34.949Z,30.00
2018-09-04T12:09:04.307Z,28.25
2018-09-04T12:11:34.557Z,30.42
2018-09-04T12:14:04.554Z,32.58
2018-09-04T12:16:34.886Z,29.63
2018-09-04T12:19:06.421Z,31.17
2018-09-04T12:21:34.930Z,30.12
2018-09-04T12:24:06.430Z,30.05
2018-09-04T12:26:35.585Z,30.85
2018-09-04T12:29:04.852Z,28.87
2018-09-04T12:31:34.887Z,28.38
2018-09-04T12:34:06.466Z,30.50
2018-09-04T12:36:36.979Z,31.55
2018-09-04T12:39:08.252Z,30.92
2018-09-04T12:41:38.314Z,29.27
2018-09-04T12:44:06.897Z,31.55
2018-09-04T12:46:38.664Z,29.23
2018-09-04T12:49:08.770Z,28.15
2018-09-04T12:51:38.951Z,28.48
2018-09-04T12:54:09.106Z,27.25
2018-09-04T12:56:37.697Z,23.48
2018-09-04T12:59:06.307Z,22.42
2018-09-04T13:01:35.090Z,21.33
2018-09-04T13:04:05.184Z,21.77
2018-09-04T13:06:33.769Z,23.08
2018-09-04T13:09:05.557Z,24.08
2018-09-04T13:11:36.035Z,22.70
2018-09-04T13:14:06.178Z,22.80
2018-09-04T13:16:37.882Z,22.77
2018-09-04T13:19:07.988Z,22.85
2018-09-04T13:21:36.673Z,22.67
2018-09-04T13:24:05.223Z,21.25
2018-09-04T13:26:36.971Z,21.48
2018-09-04T13:29:07.200Z,20.37
2018-09-04T13:31:36.409Z,21.35
2018-09-04T13:34:04.902Z,20.80
2018-09-04T13:36:34.947Z,20.27
2018-09-04T13:39:05.941Z,20.75
2018-09-04T13:41:35.138Z,19.42
2018-09-04T13:44:05.676Z,17.23
2018-09-04T13:46:36.668Z,17.17
2018-09-04T13:49:09.018Z,17.85
2018-09-04T13:51:40.713Z,16.42
2018-09-04T13:54:09.216Z,17.35
2018-09-04T13:56:38.370Z,18.33
2018-09-04T13:59:10.217Z,17.33
2018-09-04T14:01:39.390Z,18.75
2018-09-04T14:04:09.407Z,17.02
2018-09-04T14:06:41.023Z,16.08
2018-09-04T14:09:11.544Z,15.57
2018-09-04T14:11:43.015Z,16.17
2018-09-04T14:14:14.905Z,16.35
2018-09-04T14:16:43.612Z,18.95
2018-09-04T14:19:11.964Z,18.17
2018-09-04T14:21:41.987Z,18.27
2018-09-04T14:24:10.545Z,16.08
2018-09-04T14:26:41.998Z,16.33
2018-09-04T14:29:53.156Z,20.55
2018-09-04T14:31:41.207Z,21.77
2018-09-04T14:34:10.437Z,20.60
2018-09-04T14:36:41.187Z,19.40
2018-09-04T14:39:12.513Z,21.85
2018-09-04T14:41:43.982Z,23.65
2018-09-04T14:44:14.677Z,29.37
2018-09-04T14:46:46.020Z,27.50
2018-09-04T14:49:17.564Z,28.02
2018-09-04T14:51:47.228Z,28.85
2018-09-04T14:54:17.307Z,24.60
2018-09-04T14:56:47.386Z,25.30
2018-09-04T14:59:17.482Z,24.10
2018-09-04T15:01:49.064Z,22.27
2018-09-04T15:04:19.361Z,20.25
2018-09-04T15:06:49.695Z,20.23
2018-09-04T15:09:20.885Z,19.62
2018-09-04T15:11:52.472Z,18.48
2018-09-04T15:14:23.965Z,14.63
2018-09-04T15:16:56.055Z,14.98
2018-09-04T15:19:27.091Z,16.02
2018-09-04T15:21:55.727Z,16.37
2018-09-04T15:24:27.292Z,14.90
2018-09-04T15:26:59.711Z,14.60
2018-09-04T15:29:31.521Z,14.73
2018-09-04T15:32:03.427Z,12.25
2018-09-04T15:34:33.600Z,11.85
2018-09-04T15:37:02.771Z,12.13
2018-09-04T15:39:34.603Z,11.55
2018-09-04T15:42:04.703Z,10.80
2018-09-04T15:44:35.952Z,11.07
2018-09-04T15:47:06.438Z,11.60
2018-09-04T15:49:50.997Z,12.18
2018-09-04T15:52:21.048Z,10.73
2018-09-04T15:54:51.199Z,11.15
2018-09-04T15:57:22.121Z,9.48
2018-09-04T15:59:50.840Z,9.68
2018-09-04T16:02:20.872Z,9.70
2018-09-04T16:04:52.345Z,10.43
2018-09-04T16:07:24.172Z,12.37
2018-09-04T16:09:52.856Z,13.18
2018-09-04T16:12:24.659Z,14.13
2018-09-04T16:14:53.275Z,13.90
2018-09-04T16:17:23.429Z,14.20
2018-09-04T16:19:52.206Z,15.20
2018-09-04T16:22:23.768Z,13.20
2018-09-04T16:24:55.251Z,14.87
2018-09-04T16:27:25.429Z,13.45
2018-09-04T16:29:53.117Z,13.40
2018-09-04T16:32:21.700Z,14.52
2018-09-04T16:34:53.254Z,16.47
2018-09-04T16:37:24.668Z,16.17
2018-09-04T16:39:54.800Z,15.10
2018-09-04T16:42:26.442Z,14.87
2018-09-04T16:44:58.026Z,14.27
2018-09-04T16:47:28.232Z,13.73
2018-09-04T16:49:58.697Z,13.75
2018-09-04T16:52:30.508Z,13.98
2018-09-04T16:55:00.619Z,13.43
2018-09-04T16:57:30.965Z,13.70
2018-09-04T17:00:01.068Z,13.02
2018-09-04T17:02:31.085Z,12.43
2018-09-04T17:05:01.400Z,12.70
2018-09-04T17:07:31.323Z,13.10
2018-09-04T17:10:02.844Z,12.43
2018-09-04T17:12:34.709Z,12.88
2018-09-04T17:15:04.760Z,12.65
2018-09-04T17:17:34.816Z,13.38
2018-09-04T17:20:05.394Z,11.73
2018-09-04T17:22:36.740Z,12.82
2018-09-04T17:25:05.337Z,12.15
2018-09-04T17:27:35.751Z,11.95
2018-09-04T17:30:07.533Z,12.73
2018-09-04T17:32:39.244Z,13.00
2018-09-04T17:35:08.801Z,13.68
2018-09-04T17:37:38.944Z,13.05
2018-09-04T17:40:09.033Z,13.73
2018-09-04T17:42:39.473Z,13.30
2018-09-04T17:45:10.063Z,13.35
2018-09-04T17:47:40.310Z,12.52
2018-09-04T17:50:11.448Z,13.48
2018-09-04T17:52:41.714Z,13.25
2018-09-04T17:55:12.001Z,13.10
2018-09-04T17:57:40.582Z,14.82
2018-09-04T18:00:10.884Z,15.23
2018-09-04T18:02:41.192Z,14.15
2018-09-04T18:05:10.022Z,14.85
2018-09-04T18:07:41.816Z,14.27
2018-09-04T18:10:13.837Z,15.20
2018-09-04T18:12:44.765Z,17.62
2018-09-04T18:15:15.096Z,15.55
2018-09-04T18:17:44.253Z,15.05
2018-09-04T18:20:16.602Z,13.57
2018-09-04T18:22:46.731Z,15.88
2018-09-04T18:25:17.532Z,15.40
2018-09-04T18:27:48.074Z,14.50
2018-09-04T18:30:18.324Z,14.27
2018-09-04T18:32:46.873Z,14.00
2018-09-04T18:35:16.921Z,14.02
2018-09-04T18:37:48.642Z,14.95
2018-09-04T18:40:21.398Z,14.60
2018-09-04T18:42:53.159Z,13.52
2018-09-04T18:45:41.404Z,15.57
2018-09-04T18:48:10.595Z,16.05
2018-09-04T18:50:39.108Z,16.90
2018-09-04T18:53:08.318Z,15.65
2018-09-04T18:55:38.397Z,14.70
2018-09-04T18:58:10.419Z,14.40
2018-09-04T19:00:38.965Z,16.60
2018-09-04T19:03:09.202Z,16.08
2018-09-04T19:05:37.781Z,16.65
2018-09-04T19:08:09.747Z,15.90
2018-09-04T19:10:39.931Z,16.05
2018-09-04T19:13:11.609Z,15.77
2018-09-04T19:15:40.173Z,17.25
2018-09-04T19:18:08.858Z,16.25
2018-09-04T19:20:38.990Z,16.12
2018-09-04T19:23:07.561Z,17.87
2018-09-04T19:25:37.886Z,16.67
2018-09-04T19:28:09.529Z,18.08
2018-09-04T19:30:38.128Z,19.17
2018-09-04T19:33:08.287Z,17.20
2018-09-04T19:35:38.324Z,19.08
2018-09-04T19:38:08.597Z,20.15
2018-09-04T19:40:38.850Z,18.58
2018-09-04T19:43:08.878Z,19.92
2018-09-04T19:45:38.988Z,21.30
2018-09-04T19:48:09.276Z,22.60
2018-09-04T19:50:38.388Z,24.67
2018-09-04T19:53:10.211Z,27.23
2018-09-04T19:55:40.441Z,26.33
2018-09-04T19:58:11.180Z,26.27
2018-09-04T20:00:41.384Z,29.35
2018-09-04T20:03:12.824Z,30.65
2018-09-04T20:05:42.867Z,30.77
2018-09-04T20:08:12.920Z,31.42
2018-09-04T20:10:42.955Z,34.08
2018-09-04T20:13:14.500Z,34.72
2018-09-04T20:15:44.680Z,34.50
2018-09-04T20:18:12.958Z,34.13
2018-09-04T20:20:44.529Z,35.42
2018-09-04T20:23:16.049Z,36.67
2018-09-04T20:25:46.101Z,35.70
2018-09-04T20:28:17.756Z,37.90
2018-09-04T20:30:48.746Z,38.90
2018-09-04T20:33:18.806Z,40.12
2018-09-04T20:35:47.400Z,40.92
2018-09-04T20:38:18.939Z,40.55
2018-09-04T20:40:49.285Z,43.10
2018-09-04T20:43:19.298Z,45.10
2018-09-04T20:45:49.508Z,44.20
2018-09-04T20:48:19.825Z,44.75
2018-09-04T20:50:51.628Z,44.47
2018-09-04T20:53:22.098Z,45.00
2018-09-04T20:55:54.002Z,47.72
2018-09-04T20:58:41.107Z,48.92
2018-09-04T21:01:27.851Z,47.45
2018-09-04T21:04:14.121Z,50.20
2018-09-04T21:06:51.046Z,50.22
2018-09-04T21:09:53.995Z,50.65
2018-09-04T21:12:25.777Z,49.40
2018-09-04T21:14:57.376Z,49.53
2018-09-04T21:17:27.422Z,51.67
2018-09-04T21:19:55.974Z,51.28
2018-09-04T21:22:26.363Z,54.15
2018-09-04T21:24:56.790Z,57.35
2018-09-04T21:27:26.999Z,59.67
2018-09-04T21:29:57.319Z,58.22
2018-09-04T21:32:27.301Z,56.88
2018-09-04T21:34:57.410Z,52.83
2018-09-04T21:37:27.526Z,47.78
2018-09-04T21:39:57.618Z,47.05
2018-09-04T21:42:26.267Z,54.47
2018-09-04T21:44:54.891Z,45.83
2018-09-04T21:47:23.185Z,59.70
2018-09-04T21:49:53.271Z,51.47
2018-09-04T21:52:23.145Z,40.55
2018-09-04T21:54:54.780Z,57.40
2018-09-04T21:57:25.450Z,46.90
2018-09-04T21:59:54.577Z,47.17
2018-09-04T22:02:23.205Z,41.40
2018-09-04T22:04:54.646Z,42.17
2018-09-04T22:07:24.796Z,47.62
2018-09-04T22:09:53.381Z,45.50
2018-09-04T22:12:23.503Z,46.05
2018-09-04T22:14:54.036Z,49.70
2018-09-04T22:17:22.030Z,37.03
2018-09-04T22:19:53.725Z,38.00
2018-09-04T22:22:23.251Z,40.88
2018-09-04T22:24:54.893Z,38.80
2018-09-04T22:27:23.561Z,44.58
2018-09-04T22:29:54.758Z,41.72
2018-09-04T22:32:26.471Z,54.72
2018-09-04T22:34:58.187Z,50.95
2018-09-04T22:37:28.292Z,52.80
2018-09-04T22:39:59.912Z,56.58
2018-09-04T22:42:28.922Z,57.50
2018-09-04T22:45:00.552Z,64.35
2018-09-04T22:47:29.225Z,61.63
2018-09-04T22:50:17.495Z,66.32
2018-09-04T22:52:47.603Z,66.80
2018-09-04T22:55:19.260Z,66.75
2018-09-04T22:57:49.798Z,64.78
2018-09-04T23:00:19.402Z,66.30
2018-09-04T23:02:51.022Z,64.28
2018-09-04T23:05:19.442Z,65.72
2018-09-04T23:07:50.931Z,64.90
2018-09-04T23:10:21.287Z,64.65
2018-09-04T23:12:50.191Z,65.22
2018-09-04T23:15:19.824Z,67.00
2018-09-04T23:17:50.033Z,66.07
2018-09-04T23:20:22.121Z,69.32
2018-09-04T23:22:52.480Z,67.53
2018-09-04T23:25:20.830Z,70.40
2018-09-04T23:27:51.029Z,65.65
2018-09-04T23:30:21.127Z,67.20
2018-09-04T23:32:51.250Z,63.60
2018-09-04T23:35:20.159Z,65.85
2018-09-04T23:37:50.277Z,60.30
2018-09-04T23:40:18.316Z,63.90
2018-09-04T23:42:50.196Z,66.12
2018-09-04T23:45:21.961Z,64.05
2018-09-04T23:47:50.622Z,66.53
2018-09-04T23:50:21.167Z,64.03
2018-09-04T23:52:51.191Z,58.65
2018-09-04T23:55:22.746Z,61.75
2018-09-04T23:57:54.904Z,61.72
